createdAt,value
2017-11-11T00:00:47.201Z,97442.96
2017-11-11T00:03:15.072Z,97444.45
2017-11-11T00:05:42.677Z,97445.36
2017-11-11T00:08:10.197Z,97443.38
2017-11-11T00:10:37.748Z,97439.41
2017-11-11T00:13:05.308Z,97442.96
2017-11-11T00:15:32.819Z,97443.52
2017-11-11T00:18:00.509Z,97436.33
2017-11-11T00:20:28.088Z,97433.23
2017-11-11T00:22:55.655Z,97435.37
2017-11-11T00:25:23.388Z,97429.67
2017-11-11T00:27:51.824Z,97430.95
2017-11-11T00:30:19.339Z,97433.14
2017-11-11T00:32:47.112Z,97437.65
2017-11-11T00:35:14.637Z,97441.75
2017-11-11T00:37:42.169Z,97440.70
2017-11-11T00:40:09.714Z,97446.00
2017-11-11T00:42:37.245Z,97448.01
2017-11-11T00:45:04.806Z,97445.25
2017-11-11T00:47:32.604Z,97449.30
2017-11-11T00:50:00.133Z,97449.41
2017-11-11T00:52:27.688Z,97446.48
2017-11-11T00:54:55.292Z,97444.34
2017-11-11T00:57:22.806Z,97453.11
2017-11-11T00:59:50.345Z,97459.02
2017-11-11T01:02:18.129Z,97456.33
2017-11-11T01:04:45.706Z,97461.80
2017-11-11T01:07:13.247Z,97460.23
2017-11-11T01:09:40.990Z,97454.48
2017-11-11T01:12:08.504Z,97456.02
2017-11-11T01:14:36.020Z,97454.31
2017-11-11T01:17:03.769Z,97454.41
2017-11-11T01:19:31.275Z,97447.13
2017-11-11T01:21:58.830Z,97455.06
2017-11-11T01:24:26.546Z,97461.56
2017-11-11T01:26:54.077Z,97459.66
2017-11-11T01:29:21.630Z,97457.91
2017-11-11T01:31:49.257Z,97459.52
2017-11-11T01:34:16.772Z,97458.41
2017-11-11T01:36:44.289Z,97453.45
2017-11-11T01:39:11.998Z,97450.19
2017-11-11T01:41:39.518Z,97452.82
2017-11-11T01:44:07.028Z,97450.98
2017-11-11T01:46:34.631Z,97451.08
2017-11-11T01:49:02.184Z,97449.81
2017-11-11T01:51:29.721Z,97449.19
2017-11-11T01:53:57.479Z,97450.97
2017-11-11T01:56:24.991Z,97451.70
2017-11-11T01:58:52.508Z,97452.13
2017-11-11T02:01:20.263Z,97453.83
2017-11-11T02:03:47.771Z,97453.66
2017-11-11T02:06:15.295Z,97451.53
2017-11-11T02:08:43.271Z,97453.02
2017-11-11T02:11:10.806Z,97449.22
2017-11-11T02:13:38.674Z,97448.74
2017-11-11T02:16:06.234Z,97450.50
2017-11-11T02:18:33.794Z,97460.83
2017-11-11T02:21:01.354Z,97456.13
2017-11-11T02:23:28.984Z,97456.09
2017-11-11T02:25:56.496Z,97454.69
2017-11-11T02:28:24.009Z,97450.84
2017-11-11T02:30:51.564Z,97442.06
2017-11-11T02:33:19.158Z,97443.62
2017-11-11T02:35:46.705Z,97442.45
2017-11-11T02:38:14.542Z,97438.95
2017-11-11T02:40:42.052Z,97434.98
2017-11-11T02:43:09.568Z,97433.91
2017-11-11T02:45:37.351Z,97432.51
2017-11-11T02:48:04.920Z,97437.11
2017-11-11T02:50:33.423Z,97433.64
2017-11-11T02:53:01.156Z,97436.22
2017-11-11T02:55:28.714Z,97438.75
2017-11-11T02:57:56.251Z,97436.03
2017-11-11T03:00:23.937Z,97437.23
2017-11-11T03:02:51.493Z,97437.34
2017-11-11T03:05:19.003Z,97441.03
2017-11-11T03:07:46.576Z,97442.58
2017-11-11T03:10:14.092Z,97433.36
2017-11-11T03:12:41.635Z,97427.65
2017-11-11T03:15:09.392Z,97432.83
2017-11-11T03:17:36.909Z,97433.61
2017-11-11T03:20:04.424Z,97431.70
2017-11-11T03:22:32.732Z,97431.25
2017-11-11T03:25:00.277Z,97421.77
2017-11-11T03:27:27.792Z,97412.72
2017-11-11T03:29:55.576Z,97410.69
2017-11-11T03:32:23.094Z,97416.25
2017-11-11T03:34:50.612Z,97414.44
2017-11-11T03:37:18.344Z,97412.98
2017-11-11T03:39:45.858Z,97416.84
2017-11-11T03:42:13.372Z,97405.70
2017-11-11T03:44:41.064Z,97403.34
2017-11-11T03:47:08.577Z,97395.41
2017-11-11T03:49:36.092Z,97392.34
2017-11-11T03:52:03.650Z,97402.78
2017-11-11T03:54:31.176Z,97402.20
2017-11-11T03:56:58.714Z,97401.86
2017-11-11T03:59:26.556Z,97400.95
2017-11-11T04:01:54.084Z,97400.04
2017-11-11T04:04:21.599Z,97401.53
2017-11-11T04:06:49.160Z,97397.31
2017-11-11T04:09:16.713Z,97385.48
2017-11-11T04:11:44.274Z,97388.27
2017-11-11T04:14:11.835Z,97390.80
2017-11-11T04:16:39.348Z,97391.56
2017-11-11T04:19:06.879Z,97395.64
2017-11-11T04:21:34.448Z,97386.25
2017-11-11T04:24:01.960Z,97382.00
2017-11-11T04:26:29.471Z,97366.30
2017-11-11T04:28:57.189Z,97365.00
2017-11-11T04:31:24.700Z,97360.22
2017-11-11T04:33:52.212Z,97360.30
2017-11-11T04:36:19.969Z,97363.87
2017-11-11T04:38:47.529Z,97369.02
2017-11-11T04:41:15.087Z,97361.06
2017-11-11T04:43:43.047Z,97371.28
2017-11-11T04:46:10.567Z,97380.03
2017-11-11T04:48:38.077Z,97370.37
2017-11-11T04:51:05.628Z,97379.05
2017-11-11T04:53:33.141Z,97376.99
2017-11-11T04:56:00.685Z,97376.17
2017-11-11T04:58:28.310Z,97370.01
2017-11-11T05:00:55.815Z,97351.94
2017-11-11T05:03:23.332Z,97347.48
2017-11-11T05:05:50.892Z,97339.26
2017-11-11T05:08:18.442Z,97342.96
2017-11-11T05:10:45.951Z,97342.49
2017-11-11T05:13:14.586Z,97334.59
2017-11-11T05:15:42.095Z,97327.88
2017-11-11T05:18:09.603Z,97344.12
2017-11-11T05:20:37.344Z,97347.05
2017-11-11T05:23:04.856Z,97344.25
2017-11-11T05:25:33.144Z,97334.58
2017-11-11T05:28:00.711Z,97326.75
2017-11-11T05:30:28.223Z,97328.50
2017-11-11T05:32:55.775Z,97336.19
2017-11-11T05:35:23.314Z,97341.37
2017-11-11T05:37:50.828Z,97337.17
2017-11-11T05:40:18.335Z,97343.69
2017-11-11T05:42:46.083Z,97344.45
2017-11-11T05:45:13.602Z,97342.92
2017-11-11T05:47:41.129Z,97335.84
2017-11-11T05:50:08.685Z,97340.77
2017-11-11T05:52:36.203Z,97339.83
2017-11-11T05:55:03.724Z,97332.35
2017-11-11T05:57:31.751Z,97334.05
2017-11-11T05:59:59.263Z,97338.03
2017-11-11T06:02:26.781Z,97329.61
2017-11-11T06:04:54.656Z,97334.67
2017-11-11T06:07:22.160Z,97334.26
2017-11-11T06:09:49.671Z,97322.81
2017-11-11T06:12:17.653Z,97324.39
2017-11-11T06:14:45.188Z,97326.75
2017-11-11T06:17:13.680Z,97322.82
2017-11-11T06:19:41.444Z,97327.80
2017-11-11T06:22:09.004Z,97331.45
2017-11-11T06:24:36.511Z,97334.85
2017-11-11T06:27:04.135Z,97330.39
2017-11-11T06:29:31.814Z,97320.44
2017-11-11T06:31:59.328Z,97323.38
2017-11-11T06:34:26.901Z,97317.98
2017-11-11T06:36:54.481Z,97316.69
2017-11-11T06:39:22.019Z,97316.09
2017-11-11T06:41:49.816Z,97312.05
2017-11-11T06:44:17.547Z,97308.17
2017-11-11T06:46:45.105Z,97308.39
2017-11-11T06:49:12.843Z,97309.53
2017-11-11T06:51:40.355Z,97306.36
2017-11-11T06:54:07.886Z,97305.77
2017-11-11T06:56:35.441Z,97305.89
2017-11-11T06:59:02.949Z,97300.78
2017-11-11T07:01:30.460Z,97297.98
2017-11-11T07:03:58.207Z,97290.97
2017-11-11T07:06:25.719Z,97291.23
2017-11-11T07:08:53.233Z,97294.45
2017-11-11T07:11:21.106Z,97299.70
2017-11-11T07:13:48.666Z,97288.93
2017-11-11T07:16:16.176Z,97287.19
2017-11-11T07:18:43.755Z,97293.08
2017-11-11T07:21:11.346Z,97297.62
2017-11-11T07:23:38.859Z,97299.02
2017-11-11T07:26:06.564Z,97296.47
2017-11-11T07:28:34.076Z,97288.16
2017-11-11T07:31:01.608Z,97287.47
2017-11-11T07:33:30.264Z,97286.11
2017-11-11T07:35:57.783Z,97277.45
2017-11-11T07:38:25.299Z,97264.56
2017-11-11T07:40:53.020Z,97264.11
2017-11-11T07:43:20.538Z,97259.17
2017-11-11T07:45:48.060Z,97261.97
2017-11-11T07:48:15.929Z,97257.33
2017-11-11T07:50:43.443Z,97253.97
2017-11-11T07:53:11.456Z,97249.66
2017-11-11T07:55:39.321Z,97253.97
2017-11-11T07:58:06.876Z,97243.98
2017-11-11T08:00:34.382Z,97235.50
2017-11-11T08:03:01.949Z,97227.16
2017-11-11T08:05:29.476Z,97222.68
2017-11-11T08:07:57.012Z,97208.48
2017-11-11T08:10:24.778Z,97219.67
2017-11-11T08:12:52.299Z,97217.75
2017-11-11T08:15:19.818Z,97214.45
2017-11-11T08:17:47.368Z,97203.05
2017-11-11T08:20:14.912Z,97198.90
2017-11-11T08:22:42.471Z,97195.62
2017-11-11T08:25:10.052Z,97202.87
2017-11-11T08:27:37.582Z,97202.53
2017-11-11T08:30:05.112Z,97191.84
2017-11-11T08:32:32.980Z,97192.99
2017-11-11T08:35:00.492Z,97185.77
2017-11-11T08:37:28.047Z,97178.97
2017-11-11T08:39:55.793Z,97175.25
2017-11-11T08:42:23.368Z,97174.33
2017-11-11T08:44:50.879Z,97168.78
2017-11-11T08:47:18.423Z,97165.02
2017-11-11T08:49:45.998Z,97157.82
2017-11-11T08:52:13.516Z,97152.16
2017-11-11T08:54:41.179Z,97157.87
2017-11-11T08:57:08.708Z,97140.80
2017-11-11T08:59:36.268Z,97135.14
2017-11-11T09:02:04.518Z,97130.97
2017-11-11T09:04:32.032Z,97126.14
2017-11-11T09:06:59.550Z,97122.93
2017-11-11T09:09:27.323Z,97128.83
2017-11-11T09:11:54.835Z,97119.45
2017-11-11T09:14:22.363Z,97119.49
2017-11-11T09:16:50.084Z,97119.72
2017-11-11T09:19:17.604Z,97114.20
2017-11-11T09:21:45.544Z,97124.26
2017-11-11T09:24:13.110Z,97119.15
2017-11-11T09:26:41.574Z,97115.13
2017-11-11T09:29:09.091Z,97108.66
2017-11-11T09:31:36.803Z,97105.84
2017-11-11T09:34:04.332Z,97104.25
2017-11-11T09:36:31.849Z,97100.11
2017-11-11T09:38:59.568Z,97098.45
2017-11-11T09:41:27.149Z,97090.98
2017-11-11T09:43:54.685Z,97091.61
2017-11-11T09:46:22.477Z,97083.75
2017-11-11T09:48:49.997Z,97073.89
2017-11-11T09:51:17.513Z,97062.60
2017-11-11T09:53:45.313Z,97060.34
2017-11-11T09:56:12.835Z,97053.48
2017-11-11T09:58:40.400Z,97044.09
2017-11-11T10:01:08.117Z,97047.53
2017-11-11T10:03:35.669Z,97049.73
2017-11-11T10:06:03.186Z,97041.45
2017-11-11T10:08:31.095Z,97029.48
2017-11-11T10:10:58.757Z,97025.32
2017-11-11T10:13:26.308Z,97024.64
2017-11-11T10:15:54.192Z,97021.68
2017-11-11T10:18:21.838Z,97016.89
2017-11-11T10:20:49.363Z,97012.91
2017-11-11T10:23:17.137Z,97011.64
2017-11-11T10:25:45.853Z,97004.87
2017-11-11T10:28:13.503Z,97003.50
2017-11-11T10:30:41.176Z,97000.02
2017-11-11T10:33:08.734Z,96987.23
2017-11-11T10:35:36.265Z,96985.49
2017-11-11T10:38:04.368Z,96973.59
2017-11-11T10:40:31.874Z,96966.51
2017-11-11T10:42:59.384Z,96963.42
2017-11-11T10:45:27.131Z,96953.31
2017-11-11T10:47:55.625Z,96952.48
2017-11-11T10:50:23.340Z,96949.46
2017-11-11T10:52:51.136Z,96950.53
2017-11-11T10:55:18.656Z,96952.99
2017-11-11T10:57:46.272Z,96942.09
2017-11-11T11:00:13.879Z,96936.70
2017-11-11T11:02:41.410Z,96923.02
2017-11-11T11:05:08.950Z,96912.17
2017-11-11T11:07:37.430Z,96914.53
2017-11-11T11:10:05.295Z,96895.30
2017-11-11T11:12:32.817Z,96896.31
2017-11-11T11:15:00.722Z,96891.14
2017-11-11T11:17:28.246Z,96878.86
2017-11-11T11:19:55.845Z,96876.29
2017-11-11T11:22:23.406Z,96869.03
2017-11-11T11:24:50.968Z,96858.67
2017-11-11T11:27:18.488Z,96853.68
2017-11-11T11:29:46.075Z,96841.81
2017-11-11T11:32:13.747Z,96834.44
2017-11-11T11:34:41.296Z,96834.19
2017-11-11T11:37:09.162Z,96833.44
2017-11-11T11:39:36.712Z,96834.22
2017-11-11T11:42:04.289Z,96829.25
2017-11-11T11:44:32.228Z,96814.20
2017-11-11T11:46:59.779Z,96815.61
2017-11-11T11:49:28.289Z,96802.81
2017-11-11T11:51:56.051Z,96807.48
2017-11-11T11:54:23.567Z,96795.97
2017-11-11T11:56:51.282Z,96793.11
2017-11-11T11:59:19.091Z,96778.38
2017-11-11T12:01:46.800Z,96779.73
2017-11-11T12:04:14.362Z,96765.75
2017-11-11T12:06:42.114Z,96776.08
2017-11-11T12:09:09.619Z,96758.22
2017-11-11T12:11:37.124Z,96756.19
2017-11-11T12:14:04.908Z,96748.57
2017-11-11T12:16:32.469Z,96753.36
2017-11-11T12:19:00.033Z,96741.37
2017-11-11T12:21:27.676Z,96742.59
2017-11-11T12:23:55.213Z,96733.85
2017-11-11T12:26:22.722Z,96731.74
2017-11-11T12:28:50.463Z,96721.97
2017-11-11T12:31:18.025Z,96716.06
2017-11-11T12:33:45.595Z,96714.23
2017-11-11T12:36:13.756Z,96703.25
2017-11-11T12:38:41.307Z,96711.64
2017-11-11T12:41:08.816Z,96704.33
2017-11-11T12:43:36.434Z,96693.70
2017-11-11T12:46:04.007Z,96696.75
2017-11-11T12:48:31.554Z,96687.63
2017-11-11T12:50:59.288Z,96675.07
2017-11-11T12:53:26.874Z,96674.44
2017-11-11T12:55:54.413Z,96657.13
2017-11-11T12:58:22.236Z,96668.41
2017-11-11T13:00:50.061Z,96654.99
2017-11-11T13:03:17.641Z,96656.51
2017-11-11T13:05:45.488Z,96646.28
2017-11-11T13:08:13.013Z,96647.70
2017-11-11T13:10:40.548Z,96640.30
2017-11-11T13:13:08.331Z,96637.67
2017-11-11T13:15:35.843Z,96621.21
2017-11-11T13:18:03.385Z,96626.69
2017-11-11T13:20:30.944Z,96620.92
2017-11-11T13:22:58.503Z,96611.84
2017-11-11T13:25:26.032Z,96609.30
2017-11-11T13:27:53.803Z,96614.09
2017-11-11T13:30:21.694Z,96604.03
2017-11-11T13:32:49.209Z,96604.20
2017-11-11T13:35:16.860Z,96601.72
2017-11-11T13:37:45.045Z,96593.68
2017-11-11T13:40:12.565Z,96591.22
2017-11-11T13:42:40.283Z,96585.20
2017-11-11T13:45:07.805Z,96585.41
2017-11-11T13:47:35.462Z,96578.89
2017-11-11T13:50:03.272Z,96577.19
2017-11-11T13:52:30.785Z,96571.20
2017-11-11T13:54:58.349Z,96571.58
2017-11-11T13:57:26.247Z,96564.31
2017-11-11T13:59:53.758Z,96547.38
2017-11-11T14:02:21.600Z,96559.61
2017-11-11T14:04:49.711Z,96545.16
2017-11-11T14:07:17.332Z,96544.61
2017-11-11T14:09:45.056Z,96554.59
2017-11-11T14:12:13.166Z,96555.31
2017-11-11T14:14:40.802Z,96539.48
2017-11-11T14:17:08.392Z,96556.24
2017-11-11T14:19:35.996Z,96547.75
2017-11-11T14:22:03.523Z,96546.03
2017-11-11T14:24:31.065Z,96534.27
2017-11-11T14:26:58.745Z,96526.81
2017-11-11T14:29:26.387Z,96527.53
2017-11-11T14:31:53.946Z,96526.17
2017-11-11T14:34:21.817Z,96526.23
2017-11-11T14:36:49.365Z,96523.55
2017-11-11T14:39:17.135Z,96529.34
2017-11-11T14:41:44.900Z,96524.55
2017-11-11T14:44:12.587Z,96524.23
2017-11-11T14:46:40.291Z,96530.18
2017-11-11T14:49:08.068Z,96523.03
2017-11-11T14:51:35.852Z,96517.78
2017-11-11T14:54:03.617Z,96532.13
2017-11-11T14:56:31.278Z,96536.31
2017-11-11T14:58:58.796Z,96521.44
2017-11-11T15:01:26.502Z,96518.14
2017-11-11T15:03:54.568Z,96516.05
2017-11-11T15:06:22.253Z,96510.86
2017-11-11T15:08:50.007Z,96517.41
2017-11-11T15:11:18.183Z,96508.41
2017-11-11T15:13:46.037Z,96502.66
2017-11-11T15:16:13.697Z,96507.02
2017-11-11T15:18:41.563Z,96507.31
2017-11-11T15:21:09.238Z,96491.20
2017-11-11T15:23:36.855Z,96489.02
2017-11-11T15:26:04.853Z,96490.39
2017-11-11T15:28:32.447Z,96489.22
2017-11-11T15:31:00.181Z,96493.32
2017-11-11T15:33:27.942Z,96493.23
2017-11-11T15:35:55.606Z,96490.42
2017-11-11T15:38:23.563Z,96493.30
2017-11-11T15:40:51.234Z,96505.97
2017-11-11T15:43:19.030Z,96502.09
2017-11-11T15:45:46.660Z,96508.59
2017-11-11T15:48:14.416Z,96497.05
2017-11-11T15:50:42.185Z,96497.23
2017-11-11T15:53:09.954Z,96486.80
2017-11-11T15:55:37.735Z,96485.74
2017-11-11T15:58:05.270Z,96491.30
2017-11-11T16:00:33.045Z,96484.39
2017-11-11T16:03:00.767Z,96476.09
2017-11-11T16:05:28.303Z,96478.95
2017-11-11T16:07:55.824Z,96467.52
2017-11-11T16:10:23.712Z,96490.19
2017-11-11T16:12:51.252Z,96472.53
2017-11-11T16:15:18.802Z,96480.47
2017-11-11T16:17:46.534Z,96479.00
2017-11-11T16:20:14.058Z,96477.07
2017-11-11T16:22:41.582Z,96475.45
2017-11-11T16:25:09.650Z,96476.09
2017-11-11T16:27:37.211Z,96472.39
2017-11-11T16:30:04.770Z,96475.48
2017-11-11T16:32:32.471Z,96478.66
2017-11-11T16:35:00.044Z,96475.00
2017-11-11T16:37:27.754Z,96470.69
2017-11-11T16:39:55.500Z,96469.12
2017-11-11T16:42:23.012Z,96470.66
2017-11-11T16:44:50.524Z,96466.47
2017-11-11T16:47:18.230Z,96470.53
2017-11-11T16:49:45.861Z,96462.88
2017-11-11T16:52:13.415Z,96468.41
2017-11-11T16:54:41.217Z,96458.42
2017-11-11T16:57:08.752Z,96467.13
2017-11-11T16:59:36.292Z,96462.89
2017-11-11T17:02:03.856Z,96455.01
2017-11-11T17:04:31.519Z,96459.24
2017-11-11T17:06:59.077Z,96458.59
2017-11-11T17:09:26.633Z,96457.69
2017-11-11T17:11:54.195Z,96457.39
2017-11-11T17:14:21.753Z,96459.35
2017-11-11T17:16:49.928Z,96471.00
2017-11-11T17:19:17.488Z,96460.39
2017-11-11T17:21:45.046Z,96461.25
2017-11-11T17:24:13.006Z,96457.30
2017-11-11T17:26:40.575Z,96455.97
2017-11-11T17:29:08.133Z,96458.05
2017-11-11T17:31:35.975Z,96464.97
2017-11-11T17:34:03.489Z,96467.31
2017-11-11T17:36:31.020Z,96458.23
2017-11-11T17:38:58.603Z,96455.67
2017-11-11T17:41:26.115Z,96459.91
2017-11-11T17:43:53.639Z,96460.55
2017-11-11T17:46:21.483Z,96453.29
2017-11-11T17:48:49.036Z,96457.06
2017-11-11T17:51:16.555Z,96458.86
2017-11-11T17:53:44.237Z,96459.23
2017-11-11T17:56:11.793Z,96466.75
2017-11-11T17:58:39.312Z,96458.66
2017-11-11T18:01:07.321Z,96446.89
2017-11-11T18:03:34.891Z,96451.06
2017-11-11T18:06:02.444Z,96450.22
2017-11-11T18:08:30.216Z,96453.12
2017-11-11T18:10:57.866Z,96466.89
2017-11-11T18:13:25.526Z,96464.36
2017-11-11T18:15:53.495Z,96469.33
2017-11-11T18:18:21.272Z,96469.98
2017-11-11T18:20:49.040Z,96471.77
2017-11-11T18:23:17.010Z,96475.08
2017-11-11T18:25:44.664Z,96477.01
2017-11-11T18:28:12.318Z,96482.88
2017-11-11T18:30:40.182Z,96480.51
2017-11-11T18:33:07.747Z,96481.14
2017-11-11T18:35:35.363Z,96475.75
2017-11-11T18:38:03.781Z,96473.08
2017-11-11T18:40:32.261Z,96471.20
2017-11-11T18:42:59.800Z,96468.22
2017-11-11T18:45:28.130Z,96474.39
2017-11-11T18:47:55.758Z,96478.45
2017-11-11T18:50:23.316Z,96484.38
2017-11-11T18:52:51.289Z,96475.91
2017-11-11T18:55:18.810Z,96486.03
2017-11-11T18:57:46.427Z,96476.67
2017-11-11T19:00:14.563Z,96484.19
2017-11-11T19:02:42.450Z,96482.67
2017-11-11T19:05:10.312Z,96482.20
2017-11-11T19:07:38.058Z,96480.39
2017-11-11T19:10:05.738Z,96479.37
2017-11-11T19:12:33.398Z,96480.93
2017-11-11T19:15:01.057Z,96484.57
2017-11-11T19:17:28.617Z,96481.81
2017-11-11T19:19:56.160Z,96475.61
2017-11-11T19:22:24.146Z,96482.45
2017-11-11T19:24:52.316Z,96484.29
2017-11-11T19:27:19.980Z,96492.94
2017-11-11T19:29:47.901Z,96482.54
2017-11-11T19:32:15.712Z,96487.33
2017-11-11T19:34:43.273Z,96489.95
2017-11-11T19:37:11.368Z,96484.77
2017-11-11T19:39:39.215Z,96493.36
2017-11-11T19:42:06.767Z,96495.08
2017-11-11T19:44:34.845Z,96493.97
2017-11-11T19:47:03.217Z,96482.70
2017-11-11T19:49:30.983Z,96485.36
2017-11-11T19:51:58.754Z,96488.34
2017-11-11T19:54:26.306Z,96496.22
2017-11-11T19:56:54.477Z,96504.28
2017-11-11T19:59:22.651Z,96512.09
2017-11-11T20:01:50.221Z,96505.62
2017-11-11T20:04:17.975Z,96504.31
2017-11-11T20:06:45.737Z,96498.60
2017-11-11T20:09:13.399Z,96500.46
2017-11-11T20:11:40.998Z,96502.45
2017-11-11T20:14:08.585Z,96496.00
2017-11-11T20:16:36.291Z,96496.75
2017-11-11T20:19:03.844Z,96502.64
2017-11-11T20:21:31.617Z,96504.83
2017-11-11T20:23:59.374Z,96514.20
2017-11-11T20:26:26.975Z,96522.17
2017-11-11T20:28:55.772Z,96519.78
2017-11-11T20:31:23.480Z,96524.91
2017-11-11T20:33:51.242Z,96524.63
2017-11-11T20:36:19.518Z,96525.98
2017-11-11T20:38:47.342Z,96529.98
2017-11-11T20:41:15.267Z,96526.63
2017-11-11T20:43:43.221Z,96525.80
2017-11-11T20:46:10.999Z,96527.52
2017-11-11T20:48:38.665Z,96528.43
2017-11-11T20:51:07.695Z,96544.43
2017-11-11T20:53:35.516Z,96530.59
2017-11-11T20:56:03.372Z,96537.39
2017-11-11T20:58:31.286Z,96542.30
2017-11-11T21:00:59.002Z,96553.44
2017-11-11T21:03:26.835Z,96553.15
2017-11-11T21:05:54.639Z,96550.49
2017-11-11T21:08:22.401Z,96546.05
2017-11-11T21:10:50.175Z,96553.77
2017-11-11T21:13:17.931Z,96548.86
2017-11-11T21:15:45.606Z,96554.64
2017-11-11T21:18:13.453Z,96580.75
2017-11-11T21:20:41.191Z,96594.48
2017-11-11T21:23:08.728Z,96593.26
2017-11-11T21:25:36.446Z,96599.07
2017-11-11T21:28:04.403Z,96601.20
2017-11-11T21:30:32.150Z,96604.72
2017-11-11T21:32:59.834Z,96630.95
2017-11-11T21:35:27.493Z,96638.22
2017-11-11T21:37:55.255Z,96626.65
2017-11-11T21:40:22.795Z,96626.68
2017-11-11T21:42:50.825Z,96639.36
2017-11-11T21:45:18.384Z,96636.88
2017-11-11T21:47:46.094Z,96640.25
2017-11-11T21:50:13.869Z,96632.25
2017-11-11T21:52:41.431Z,96636.28
2017-11-11T21:55:09.039Z,96643.77
2017-11-11T21:57:36.859Z,96652.59
2017-11-11T22:00:04.516Z,96649.83
2017-11-11T22:02:32.077Z,96656.66
2017-11-11T22:04:59.652Z,96652.89
2017-11-11T22:07:27.211Z,96666.28
2017-11-11T22:09:54.782Z,96657.25
2017-11-11T22:12:22.357Z,96654.33
2017-11-11T22:14:49.975Z,96657.58
2017-11-11T22:17:17.534Z,96658.60
2017-11-11T22:19:45.400Z,96659.81
2017-11-11T22:22:12.963Z,96665.94
2017-11-11T22:24:40.622Z,96661.14
2017-11-11T22:27:08.383Z,96667.15
2017-11-11T22:29:36.054Z,96666.27
2017-11-11T22:32:03.708Z,96659.75
2017-11-11T22:34:31.573Z,96664.15
2017-11-11T22:36:59.135Z,96663.86
2017-11-11T22:39:26.912Z,96658.77
2017-11-11T22:41:54.597Z,96662.33
2017-11-11T22:44:22.322Z,96666.69
2017-11-11T22:46:49.870Z,96664.21
2017-11-11T22:49:17.441Z,96668.51
2017-11-11T22:51:44.999Z,96674.67
2017-11-11T22:54:12.559Z,96675.08
2017-11-11T22:56:40.321Z,96687.08
2017-11-11T22:59:07.851Z,96670.78
2017-11-11T23:01:35.367Z,96670.28
2017-11-11T23:04:03.188Z,96670.87
2017-11-11T23:06:30.702Z,96668.34
2017-11-11T23:08:58.237Z,96675.55
2017-11-11T23:11:25.984Z,96679.00
2017-11-11T23:13:53.544Z,96677.97
2017-11-11T23:16:21.102Z,96679.91
2017-11-11T23:27:52.907Z,96666.42
2017-11-11T23:30:20.424Z,96670.05
2017-11-11T23:32:47.948Z,96673.95
2017-11-11T23:35:15.735Z,96683.39
2017-11-11T23:37:43.248Z,96682.97
2017-11-11T23:40:10.777Z,96686.54
2017-11-11T23:42:38.564Z,96685.95
2017-11-11T23:45:06.090Z,96677.91
2017-11-11T23:47:33.633Z,96682.32
2017-11-11T23:50:02.513Z,96689.23
2017-11-11T23:52:30.771Z,96688.53
2017-11-11T23:54:58.279Z,96688.92
2017-11-11T23:57:26.920Z,96670.88
2017-11-11T23:59:54.436Z,96687.20
